createdAt,value
2023-03-26T00:00:00.868Z,63.21
2023-03-26T00:01:00.858Z,64.25
2023-03-26T00:02:00.988Z,59.94
2023-03-26T00:03:00.877Z,64.77
2023-03-26T00:04:00.849Z,59.60
2023-03-26T00:05:00.802Z,66.20
2023-03-26T00:06:00.837Z,63.70
2023-03-26T00:07:00.816Z,57.24
2023-03-26T00:08:00.798Z,61.73
2023-03-26T00:09:00.788Z,61.88
2023-03-26T00:10:00.797Z,60.14
2023-03-26T00:11:01.249Z,59.21
2023-03-26T00:12:01.784Z,64.96
2023-03-26T00:13:00.778Z,55.63
2023-03-26T00:14:00.786Z,60.02
2023-03-26T00:15:00.756Z,71.82
2023-03-26T00:16:00.771Z,61.00
2023-03-26T00:17:00.768Z,57.46
2023-03-26T00:18:00.832Z,62.87
2023-03-26T00:19:00.754Z,63.87
2023-03-26T00:20:00.733Z,60.11
2023-03-26T00:21:00.719Z,67.74
2023-03-26T00:22:00.744Z,55.50
2023-03-26T00:23:00.692Z,55.02
2023-03-26T00:24:00.710Z,62.78
2023-03-26T00:25:00.713Z,59.94
2023-03-26T00:26:00.691Z,56.75
2023-03-26T00:27:00.708Z,55.13
2023-03-26T00:28:00.711Z,65.00
2023-03-26T00:29:00.765Z,60.58
2023-03-26T00:30:00.682Z,55.23
2023-03-26T00:31:00.718Z,55.69
2023-03-26T00:32:00.650Z,60.87
2023-03-26T00:33:00.684Z,54.76
2023-03-26T00:34:00.674Z,54.84
2023-03-26T00:35:00.653Z,55.10
2023-03-26T00:36:02.571Z,55.60
2023-03-26T00:37:00.651Z,56.57
2023-03-26T00:38:00.618Z,57.31
2023-03-26T00:39:00.611Z,57.20
2023-03-26T00:40:00.928Z,61.93
2023-03-26T00:41:00.616Z,56.21
2023-03-26T00:42:00.622Z,62.75
2023-03-26T00:43:00.590Z,63.31
2023-03-26T00:44:00.619Z,55.11
2023-03-26T00:45:00.634Z,59.92
2023-03-26T00:46:00.655Z,55.79
2023-03-26T00:47:00.572Z,61.76
2023-03-26T00:48:02.841Z,55.47
2023-03-26T00:49:01.581Z,60.71
2023-03-26T00:50:00.545Z,60.24
2023-03-26T00:51:00.592Z,62.26
2023-03-26T00:52:00.567Z,59.26
2023-03-26T00:53:00.556Z,63.71
2023-03-26T00:54:00.559Z,64.51
2023-03-26T00:55:00.558Z,54.95
2023-03-26T00:56:00.626Z,55.72
2023-03-26T00:57:00.530Z,60.63
2023-03-26T00:58:00.520Z,55.33
2023-03-26T00:59:00.520Z,55.03
2023-03-26T01:00:00.533Z,55.37
2023-03-26T01:01:00.507Z,66.56
2023-03-26T01:02:00.564Z,65.88
2023-03-26T01:03:00.593Z,60.51
2023-03-26T01:04:07.584Z,54.72
2023-03-26T01:05:02.530Z,54.78
2023-03-26T01:06:00.448Z,54.59
2023-03-26T01:07:00.456Z,54.92
2023-03-26T01:08:00.479Z,55.17
2023-03-26T01:09:00.552Z,56.76
2023-03-26T01:10:00.431Z,64.46
2023-03-26T01:11:00.438Z,64.06
2023-03-26T01:12:01.436Z,65.73
2023-03-26T01:13:00.435Z,60.79
2023-03-26T01:14:00.428Z,61.08
2023-03-26T01:15:00.418Z,55.35
2023-03-26T01:16:00.440Z,55.31
2023-03-26T01:17:00.414Z,55.30
2023-03-26T01:18:00.442Z,56.69
2023-03-26T01:19:00.383Z,63.50
2023-03-26T01:20:00.411Z,63.25
2023-03-26T01:21:00.371Z,55.70
2023-03-26T01:22:00.369Z,55.50
2023-03-26T01:23:00.419Z,55.57
2023-03-26T01:24:00.363Z,57.44
2023-03-26T01:25:00.359Z,59.70
2023-03-26T01:26:00.356Z,55.35
2023-03-26T01:27:00.355Z,67.25
2023-03-26T01:28:00.361Z,64.64
2023-03-26T01:29:00.356Z,56.64
2023-03-26T01:30:00.312Z,60.71
2023-03-26T01:31:00.308Z,59.85
2023-03-26T01:32:00.314Z,65.41
2023-03-26T01:33:00.375Z,55.26
2023-03-26T01:34:00.286Z,60.47
2023-03-26T01:35:00.303Z,60.62
2023-03-26T01:36:00.344Z,69.11
2023-03-26T01:37:00.282Z,55.84
2023-03-26T01:38:00.310Z,60.52
2023-03-26T01:39:00.543Z,55.18
2023-03-26T01:40:00.307Z,59.73
2023-03-26T01:41:00.280Z,55.07
2023-03-26T01:42:00.243Z,54.98
2023-03-26T01:43:00.247Z,55.00
2023-03-26T01:44:00.350Z,57.20
2023-03-26T01:45:00.240Z,58.87
2023-03-26T01:46:00.223Z,54.77
2023-03-26T01:47:00.262Z,55.12
2023-03-26T01:48:00.263Z,59.91
2023-03-26T01:49:00.211Z,55.24
2023-03-26T01:50:00.218Z,55.42
2023-03-26T01:51:00.214Z,64.15
2023-03-26T01:52:00.180Z,59.61
2023-03-26T01:53:00.215Z,59.66
2023-03-26T01:54:00.210Z,55.24
2023-03-26T01:55:00.182Z,55.57
2023-03-26T01:56:00.214Z,55.33
2023-03-26T01:57:00.328Z,64.29
2023-03-26T01:58:00.155Z,54.99
2023-03-26T01:59:00.158Z,57.37
2023-03-26T02:00:00.176Z,61.28
2023-03-26T02:01:00.433Z,58.84
2023-03-26T02:02:00.258Z,54.90
2023-03-26T02:03:00.222Z,54.60
2023-03-26T02:04:00.132Z,54.54
2023-03-26T02:05:00.153Z,54.75
2023-03-26T02:06:00.146Z,54.43
2023-03-26T02:07:00.105Z,61.83
2023-03-26T02:08:00.102Z,58.14
2023-03-26T02:09:00.108Z,58.76
2023-03-26T02:10:00.160Z,55.02
2023-03-26T02:11:00.113Z,59.44
2023-03-26T02:12:00.113Z,56.97
2023-03-26T02:13:00.069Z,62.66
2023-03-26T02:14:00.055Z,58.89
2023-03-26T02:15:00.041Z,60.96
2023-03-26T02:16:00.114Z,55.60
2023-03-26T02:17:00.036Z,54.82
2023-03-26T02:18:00.140Z,54.89
2023-03-26T02:19:00.024Z,54.69
2023-03-26T02:20:00.031Z,54.67
2023-03-26T02:21:00.031Z,54.93
2023-03-26T02:22:00.068Z,57.61
2023-03-26T02:22:59.999Z,66.16
2023-03-26T02:23:59.992Z,60.93
2023-03-26T02:24:59.981Z,58.97
2023-03-26T02:26:00.140Z,54.95
2023-03-26T02:26:59.974Z,54.60
2023-03-26T02:27:59.969Z,54.53
2023-03-26T02:28:59.955Z,55.05
2023-03-26T02:29:59.960Z,63.97
2023-03-26T02:30:59.962Z,54.93
2023-03-26T02:32:00.055Z,54.73
2023-03-26T02:33:00.969Z,54.63
2023-03-26T02:33:59.937Z,60.70
2023-03-26T02:34:59.993Z,57.43
2023-03-26T02:36:00.022Z,54.77
2023-03-26T02:36:59.922Z,54.55
2023-03-26T02:37:59.933Z,54.81
2023-03-26T02:38:59.890Z,55.40
2023-03-26T02:39:59.895Z,54.97
2023-03-26T02:40:59.900Z,55.07
2023-03-26T02:41:59.891Z,55.53
2023-03-26T02:42:59.883Z,55.00
2023-03-26T02:43:59.866Z,55.10
2023-03-26T02:44:59.877Z,65.73
2023-03-26T02:45:59.944Z,54.91
2023-03-26T02:46:59.840Z,55.01
2023-03-26T02:47:59.922Z,54.63
2023-03-26T02:48:59.857Z,54.91
2023-03-26T02:49:59.837Z,59.96
2023-03-26T02:50:59.822Z,54.95
2023-03-26T02:51:59.814Z,55.12
2023-03-26T02:52:59.814Z,54.92
2023-03-26T02:53:59.822Z,54.93
2023-03-26T02:54:59.820Z,54.79
2023-03-26T02:55:59.792Z,61.21
2023-03-26T02:56:59.793Z,58.94
2023-03-26T02:57:59.804Z,54.65
2023-03-26T02:58:59.814Z,54.86
2023-03-26T02:59:59.776Z,54.98
2023-03-26T03:00:59.794Z,55.12
2023-03-26T03:01:59.825Z,54.92
2023-03-26T03:02:59.830Z,54.91
2023-03-26T03:03:59.813Z,59.90
2023-03-26T03:04:59.738Z,58.79
2023-03-26T03:05:59.758Z,57.59
2023-03-26T03:06:59.783Z,56.11
2023-03-26T03:07:59.727Z,59.58
2023-03-26T03:08:59.743Z,55.05
2023-03-26T03:09:59.731Z,58.84
2023-03-26T03:10:59.723Z,62.55
2023-03-26T03:11:59.718Z,54.95
2023-03-26T03:12:59.737Z,55.16
2023-03-26T03:13:59.696Z,54.87
2023-03-26T03:14:59.688Z,58.18
2023-03-26T03:15:59.675Z,58.45
2023-03-26T03:16:59.694Z,58.69
2023-03-26T03:17:59.723Z,54.84
2023-03-26T03:18:59.681Z,54.70
2023-03-26T03:19:59.735Z,54.84
2023-03-26T03:20:59.645Z,54.92
2023-03-26T03:21:59.647Z,54.94
2023-03-26T03:22:59.664Z,58.94
2023-03-26T03:24:00.134Z,54.60
2023-03-26T03:24:59.636Z,54.53
2023-03-26T03:25:59.736Z,54.83
2023-03-26T03:26:59.635Z,62.01
2023-03-26T03:27:59.612Z,59.48
2023-03-26T03:28:59.670Z,55.27
2023-03-26T03:29:59.608Z,61.23
2023-03-26T03:30:59.627Z,60.56
2023-03-26T03:31:59.629Z,56.49
2023-03-26T03:32:59.613Z,55.12
2023-03-26T03:33:59.575Z,54.86
2023-03-26T03:34:59.602Z,54.78
2023-03-26T03:35:59.610Z,65.23
2023-03-26T03:36:59.577Z,58.24
2023-03-26T03:37:59.558Z,61.40
2023-03-26T03:38:59.541Z,61.07
2023-03-26T03:39:59.549Z,60.22
2023-03-26T03:40:59.528Z,59.62
2023-03-26T03:41:59.553Z,55.12
2023-03-26T03:42:59.551Z,58.49
2023-03-26T03:43:59.515Z,55.32
2023-03-26T03:44:59.550Z,63.91
2023-03-26T03:45:59.515Z,60.30
2023-03-26T03:46:59.501Z,60.92
2023-03-26T03:47:59.520Z,54.95
2023-03-26T03:48:59.517Z,55.05
2023-03-26T03:49:59.471Z,54.92
2023-03-26T03:50:59.496Z,60.24
2023-03-26T03:51:59.458Z,54.69
2023-03-26T03:52:59.473Z,57.84
2023-03-26T03:53:59.472Z,60.95
2023-03-26T03:54:59.453Z,55.08
2023-03-26T03:55:59.450Z,61.75
2023-03-26T03:56:59.552Z,60.43
2023-03-26T03:57:59.450Z,56.47
2023-03-26T03:58:59.428Z,64.49
2023-03-26T03:59:59.463Z,58.93
2023-03-26T04:00:59.413Z,64.22
2023-03-26T04:01:59.430Z,58.31
2023-03-26T04:02:59.465Z,63.49
2023-03-26T04:03:59.547Z,55.48
2023-03-26T04:04:59.401Z,59.87
2023-03-26T04:05:59.400Z,66.72
2023-03-26T04:06:59.376Z,59.32
2023-03-26T04:07:59.369Z,57.10
2023-03-26T04:08:59.421Z,59.37
2023-03-26T04:09:59.359Z,57.14
2023-03-26T04:10:59.351Z,56.95
2023-03-26T04:11:59.360Z,61.14
2023-03-26T04:12:59.345Z,61.28
2023-03-26T04:13:59.341Z,59.29
2023-03-26T04:14:59.334Z,56.36
2023-03-26T04:15:59.549Z,56.88
2023-03-26T04:16:59.329Z,60.23
2023-03-26T04:17:59.316Z,65.99
2023-03-26T04:18:59.329Z,62.98
2023-03-26T04:19:59.302Z,57.76
2023-03-26T04:20:59.296Z,62.25
2023-03-26T04:21:59.273Z,56.84
2023-03-26T04:22:59.276Z,60.47
2023-03-26T04:23:59.304Z,65.25
2023-03-26T04:24:59.258Z,57.03
2023-03-26T04:25:59.262Z,65.07
2023-03-26T04:26:59.249Z,64.25
2023-03-26T04:27:59.245Z,61.49
2023-03-26T04:28:59.237Z,61.02
2023-03-26T04:29:59.253Z,60.64
2023-03-26T04:30:59.285Z,60.36
2023-03-26T04:31:59.230Z,56.89
2023-03-26T04:32:59.249Z,65.75
2023-03-26T04:33:59.215Z,57.47
2023-03-26T04:34:59.303Z,61.74
2023-03-26T04:35:59.250Z,62.06
2023-03-26T04:36:59.228Z,61.97
2023-03-26T04:37:59.200Z,62.48
2023-03-26T04:38:59.179Z,57.61
2023-03-26T04:39:59.215Z,61.57
2023-03-26T04:40:59.196Z,57.95
2023-03-26T04:41:59.175Z,62.42
2023-03-26T04:42:59.165Z,60.02
2023-03-26T04:43:59.165Z,69.44
2023-03-26T04:44:59.158Z,63.93
2023-03-26T04:45:59.175Z,57.64
2023-03-26T04:46:59.199Z,56.51
2023-03-26T04:47:59.195Z,62.19
2023-03-26T04:48:59.117Z,58.62
2023-03-26T04:49:59.133Z,63.60
2023-03-26T04:50:59.129Z,60.33
2023-03-26T04:51:59.137Z,57.02
2023-03-26T04:52:59.116Z,61.15
2023-03-26T04:53:59.104Z,59.29
2023-03-26T04:54:59.131Z,59.15
2023-03-26T04:55:59.078Z,60.17
2023-03-26T04:56:59.117Z,56.34
2023-03-26T04:57:59.138Z,62.61
2023-03-26T04:58:59.065Z,56.20
2023-03-26T04:59:59.064Z,56.54
2023-03-26T05:00:59.085Z,55.90
2023-03-26T05:02:00.146Z,56.17
2023-03-26T05:02:59.035Z,56.26
2023-03-26T05:03:59.088Z,56.17
2023-03-26T05:04:59.025Z,61.36
2023-03-26T05:05:59.090Z,63.22
2023-03-26T05:07:00.028Z,61.96
2023-03-26T05:07:59.050Z,64.46
2023-03-26T05:08:59.017Z,59.76
2023-03-26T05:09:58.998Z,61.97
2023-03-26T05:10:59.003Z,60.55
2023-03-26T05:11:59.017Z,59.46
2023-03-26T05:12:59.832Z,60.36
2023-03-26T05:13:59.028Z,61.20
2023-03-26T05:14:58.987Z,60.58
2023-03-26T05:15:58.999Z,62.38
2023-03-26T05:16:58.964Z,62.71
2023-03-26T05:17:59.055Z,62.08
2023-03-26T05:18:58.976Z,57.93
2023-03-26T05:19:58.979Z,59.88
2023-03-26T05:20:58.949Z,66.18
2023-03-26T05:21:58.920Z,60.15
2023-03-26T05:22:58.924Z,56.34
2023-03-26T05:23:58.925Z,62.04
2023-03-26T05:24:58.917Z,59.76
2023-03-26T05:25:58.912Z,57.99
2023-03-26T05:26:58.928Z,59.95
2023-03-26T05:27:58.900Z,66.24
2023-03-26T05:28:58.907Z,57.66
2023-03-26T05:29:58.940Z,60.81
2023-03-26T05:30:58.887Z,61.56
2023-03-26T05:31:58.876Z,60.37
2023-03-26T05:32:58.973Z,64.63
2023-03-26T05:33:58.853Z,60.38
2023-03-26T05:34:58.853Z,60.76
2023-03-26T05:35:58.930Z,58.84
2023-03-26T05:36:58.835Z,60.79
2023-03-26T05:37:58.830Z,58.00
2023-03-26T05:38:58.854Z,55.62
2023-03-26T05:39:58.829Z,55.73
2023-03-26T05:40:58.829Z,63.79
2023-03-26T05:41:58.808Z,68.72
2023-03-26T05:42:58.827Z,61.05
2023-03-26T05:43:58.801Z,57.61
2023-03-26T05:44:58.794Z,56.74
2023-03-26T05:45:58.798Z,56.04
2023-03-26T05:46:58.785Z,63.90
2023-03-26T05:47:58.813Z,62.81
2023-03-26T05:48:58.769Z,56.96
2023-03-26T05:49:58.757Z,64.21
2023-03-26T05:50:58.764Z,55.39
2023-03-26T05:51:58.771Z,61.47
2023-03-26T05:52:58.758Z,57.56
2023-03-26T05:53:58.747Z,70.00
2023-03-26T05:54:58.771Z,61.67
2023-03-26T05:55:58.766Z,59.42
2023-03-26T05:56:58.778Z,58.06
2023-03-26T05:57:58.709Z,60.44
2023-03-26T05:58:58.719Z,57.46
2023-03-26T05:59:58.718Z,66.50
2023-03-26T06:00:58.720Z,58.35
2023-03-26T06:01:58.691Z,68.32
2023-03-26T06:02:58.848Z,64.87
2023-03-26T06:03:58.774Z,69.11
2023-03-26T06:04:58.701Z,66.47
2023-03-26T06:05:58.694Z,61.86
2023-03-26T06:06:58.694Z,56.31
2023-03-26T06:07:58.672Z,56.61
2023-03-26T06:09:01.548Z,68.11
2023-03-26T06:09:58.639Z,64.42
2023-03-26T06:10:58.644Z,65.17
2023-03-26T06:12:33.673Z,61.05
2023-03-26T06:13:33.654Z,61.99
2023-03-26T06:13:58.670Z,66.47
2023-03-26T06:14:58.616Z,57.04
2023-03-26T06:15:58.710Z,66.98
2023-03-26T06:16:58.611Z,66.37
2023-03-26T06:17:58.633Z,71.46
2023-03-26T06:18:58.676Z,65.32
2023-03-26T06:19:58.592Z,67.01
2023-03-26T06:20:58.605Z,60.12
2023-03-26T06:21:58.557Z,58.42
2023-03-26T06:22:58.574Z,71.11
2023-03-26T06:23:58.571Z,66.70
2023-03-26T06:24:58.578Z,65.76
2023-03-26T06:25:58.521Z,58.44
2023-03-26T06:26:59.532Z,66.08
2023-03-26T06:27:58.543Z,65.60
2023-03-26T06:28:58.597Z,60.55
2023-03-26T06:29:58.552Z,58.71
2023-03-26T06:30:58.524Z,56.65
2023-03-26T06:32:09.201Z,62.02
2023-03-26T06:33:00.560Z,62.94
2023-03-26T06:33:58.530Z,63.15
2023-03-26T06:34:58.576Z,62.89
2023-03-26T06:35:58.540Z,62.10
2023-03-26T06:36:58.503Z,64.69
2023-03-26T06:37:58.609Z,67.78
2023-03-26T06:38:58.470Z,68.30
2023-03-26T06:39:58.480Z,63.54
2023-03-26T06:40:58.464Z,61.17
2023-03-26T06:41:58.450Z,64.58
2023-03-26T06:43:08.342Z,64.08
2023-03-26T06:43:59.452Z,60.83
2023-03-26T06:44:58.434Z,59.81
2023-03-26T06:45:58.501Z,59.71
2023-03-26T06:46:58.472Z,64.24
2023-03-26T06:47:58.416Z,66.48
2023-03-26T06:48:58.429Z,62.08
2023-03-26T06:49:58.460Z,56.47
2023-03-26T06:51:38.559Z,60.08
2023-03-26T06:51:59.540Z,70.31
2023-03-26T06:52:58.459Z,57.49
2023-03-26T06:53:58.467Z,63.43
2023-03-26T06:54:58.439Z,69.60
2023-03-26T06:55:58.436Z,64.81
2023-03-26T06:56:58.434Z,69.53
2023-03-26T06:57:58.422Z,65.57
2023-03-26T06:58:58.475Z,66.31
2023-03-26T06:59:59.611Z,65.17
2023-03-26T07:00:58.497Z,54.80
2023-03-26T07:01:58.395Z,53.79
2023-03-26T07:02:58.352Z,59.32
2023-03-26T07:03:59.828Z,63.65
2023-03-26T07:04:58.309Z,70.24
2023-03-26T07:05:58.320Z,70.46
2023-03-26T07:06:58.293Z,67.30
2023-03-26T07:07:58.332Z,70.86
2023-03-26T07:08:58.278Z,61.94
2023-03-26T07:09:58.271Z,67.05
2023-03-26T07:10:58.309Z,66.10
2023-03-26T07:11:58.304Z,65.24
2023-03-26T07:12:58.274Z,60.91
2023-03-26T07:13:58.250Z,62.97
2023-03-26T07:15:00.351Z,66.23
2023-03-26T07:15:58.319Z,61.63
2023-03-26T07:16:58.242Z,68.24
2023-03-26T07:17:58.277Z,57.83
2023-03-26T07:18:58.233Z,65.17
2023-03-26T07:19:58.228Z,60.03
2023-03-26T07:20:58.200Z,69.93
2023-03-26T07:21:58.197Z,57.72
2023-03-26T07:22:58.196Z,70.66
2023-03-26T07:23:58.213Z,65.36
2023-03-26T07:24:58.166Z,70.78
2023-03-26T07:25:58.198Z,67.95
2023-03-26T07:26:58.149Z,73.34
2023-03-26T07:27:58.189Z,66.74
2023-03-26T07:29:03.626Z,67.48
2023-03-26T07:30:00.137Z,66.09
2023-03-26T07:30:58.123Z,68.69
2023-03-26T07:31:58.165Z,65.83
2023-03-26T07:32:58.149Z,66.25
2023-03-26T07:33:58.116Z,70.01
2023-03-26T07:34:58.088Z,69.40
2023-03-26T07:35:58.202Z,70.68
2023-03-26T07:36:58.099Z,68.06
2023-03-26T07:37:58.074Z,65.57
2023-03-26T07:38:58.095Z,71.61
2023-03-26T07:39:58.819Z,69.52
2023-03-26T07:40:58.061Z,64.75
2023-03-26T07:41:58.079Z,72.42
2023-03-26T07:42:58.060Z,69.65
2023-03-26T07:43:58.074Z,63.22
2023-03-26T07:44:58.017Z,71.39
2023-03-26T07:45:58.048Z,68.38
2023-03-26T07:46:58.033Z,68.09
2023-03-26T07:47:58.073Z,67.26
2023-03-26T07:48:58.013Z,69.65
2023-03-26T07:49:58.036Z,67.59
2023-03-26T07:50:58.343Z,67.37
2023-03-26T07:51:57.984Z,69.37
2023-03-26T07:52:58.045Z,67.94
2023-03-26T07:53:57.963Z,67.89
2023-03-26T07:54:58.147Z,67.23
2023-03-26T07:55:57.979Z,71.32
2023-03-26T07:56:59.141Z,67.47
2023-03-26T07:57:58.932Z,67.14
2023-03-26T07:58:58.925Z,67.88
2023-03-26T07:59:58.903Z,72.12
2023-03-26T08:00:57.950Z,66.57
2023-03-26T08:01:57.971Z,67.08
2023-03-26T08:02:58.036Z,69.84
2023-03-26T08:03:58.039Z,61.71
2023-03-26T08:04:57.970Z,67.34
2023-03-26T08:05:57.891Z,67.79
2023-03-26T08:06:57.931Z,68.22
2023-03-26T08:07:57.919Z,68.69
2023-03-26T08:08:57.875Z,64.09
2023-03-26T08:09:57.864Z,66.59
2023-03-26T08:10:58.061Z,68.63
2023-03-26T08:11:57.878Z,62.60
2023-03-26T08:12:57.862Z,68.95
2023-03-26T08:13:57.857Z,65.99
2023-03-26T08:14:57.897Z,61.75
2023-03-26T08:15:58.550Z,69.11
2023-03-26T08:16:57.882Z,66.16
2023-03-26T08:17:58.057Z,59.10
2023-03-26T08:18:57.807Z,69.34
2023-03-26T08:19:57.803Z,70.13
2023-03-26T08:20:57.785Z,68.43
2023-03-26T08:21:57.797Z,71.43
2023-03-26T08:22:58.354Z,71.12
2023-03-26T08:23:57.811Z,66.40
2023-03-26T08:24:57.772Z,67.64
2023-03-26T08:25:57.767Z,62.39
2023-03-26T08:26:57.809Z,66.83
2023-03-26T08:27:57.786Z,69.74
2023-03-26T08:28:57.772Z,67.36
2023-03-26T08:29:57.789Z,67.23
2023-03-26T08:30:58.043Z,63.42
2023-03-26T08:31:57.707Z,69.33
2023-03-26T08:32:57.741Z,67.85
2023-03-26T08:33:57.690Z,71.38
2023-03-26T08:34:57.695Z,68.70
2023-03-26T08:35:57.789Z,70.03
2023-03-26T08:36:57.684Z,68.25
2023-03-26T08:37:57.674Z,71.01
2023-03-26T08:38:57.652Z,67.39
2023-03-26T08:39:57.665Z,57.43
2023-03-26T08:40:58.937Z,69.59
2023-03-26T08:41:57.664Z,63.25
2023-03-26T08:42:57.667Z,69.45
2023-03-26T08:43:57.678Z,64.79
2023-03-26T08:44:57.622Z,60.44
2023-03-26T08:45:57.620Z,64.43
2023-03-26T08:46:57.608Z,68.60
2023-03-26T08:47:57.607Z,60.32
2023-03-26T08:48:57.636Z,70.51
2023-03-26T08:49:57.607Z,66.30
2023-03-26T08:50:57.802Z,73.10
2023-03-26T08:51:57.658Z,69.87
2023-03-26T08:52:59.102Z,73.93
2023-03-26T08:53:57.587Z,69.37
2023-03-26T08:54:57.549Z,69.91
2023-03-26T08:55:57.541Z,70.83
2023-03-26T08:56:57.668Z,66.12
2023-03-26T08:57:57.525Z,69.49
2023-03-26T08:58:57.606Z,66.96
2023-03-26T08:59:59.695Z,65.36
2023-03-26T09:00:57.608Z,70.13
2023-03-26T09:01:57.550Z,69.38
2023-03-26T09:02:57.553Z,64.19
2023-03-26T09:03:57.510Z,63.55
2023-03-26T09:04:57.602Z,66.50
2023-03-26T09:05:57.470Z,68.65
2023-03-26T09:06:57.503Z,66.41
2023-03-26T09:07:57.493Z,71.71
2023-03-26T09:08:57.446Z,68.58
2023-03-26T09:09:57.477Z,70.36
2023-03-26T09:10:57.563Z,71.91
2023-03-26T09:11:57.459Z,70.27
2023-03-26T09:12:57.491Z,70.55
2023-03-26T09:13:57.515Z,69.71
2023-03-26T09:14:57.437Z,70.72
2023-03-26T09:15:57.506Z,70.39
2023-03-26T09:16:57.397Z,64.02
2023-03-26T09:17:58.144Z,68.86
2023-03-26T09:18:58.593Z,62.51
2023-03-26T09:19:57.382Z,66.40
2023-03-26T09:20:57.745Z,68.90
2023-03-26T09:21:57.391Z,63.91
2023-03-26T09:22:57.409Z,69.41
2023-03-26T09:23:57.392Z,57.70
2023-03-26T09:24:57.357Z,70.26
2023-03-26T09:25:57.364Z,65.42
2023-03-26T09:26:57.364Z,67.67
2023-03-26T09:27:57.356Z,68.33
2023-03-26T09:28:57.330Z,72.16
2023-03-26T09:29:57.369Z,66.19
2023-03-26T09:30:57.405Z,62.63
2023-03-26T09:31:57.377Z,71.47
2023-03-26T09:32:57.314Z,62.88
2023-03-26T09:33:57.352Z,65.77
2023-03-26T09:34:57.300Z,70.59
2023-03-26T09:35:57.368Z,69.56
2023-03-26T09:36:57.342Z,63.27
2023-03-26T09:37:58.089Z,70.26
2023-03-26T09:38:57.396Z,71.32
2023-03-26T09:39:58.364Z,73.07
2023-03-26T09:40:57.444Z,67.33
2023-03-26T09:41:57.302Z,67.66
2023-03-26T09:42:57.262Z,72.99
2023-03-26T09:43:57.235Z,70.25
2023-03-26T09:44:57.228Z,72.46
2023-03-26T09:45:57.252Z,67.47
2023-03-26T09:46:57.225Z,66.80
2023-03-26T09:47:57.206Z,69.26
2023-03-26T09:48:57.248Z,70.10
2023-03-26T09:49:57.181Z,72.31
2023-03-26T09:50:57.505Z,71.89
2023-03-26T09:51:57.180Z,70.20
2023-03-26T09:52:57.304Z,71.55
2023-03-26T09:53:57.174Z,71.08
2023-03-26T09:54:57.164Z,70.50
2023-03-26T09:55:57.312Z,71.32
2023-03-26T09:56:57.257Z,66.91
2023-03-26T09:57:57.175Z,73.52
2023-03-26T09:58:57.172Z,67.27
2023-03-26T09:59:57.152Z,71.53
2023-03-26T10:00:57.444Z,72.57
2023-03-26T10:01:57.158Z,71.03
2023-03-26T10:02:57.168Z,72.22
2023-03-26T10:03:57.190Z,72.68
2023-03-26T10:04:57.104Z,70.79
2023-03-26T10:05:57.072Z,68.44
2023-03-26T10:06:57.085Z,70.99
2023-03-26T10:07:57.062Z,75.31
2023-03-26T10:08:57.076Z,75.11
2023-03-26T10:09:57.058Z,69.77
2023-03-26T10:10:57.255Z,70.50
2023-03-26T10:11:57.204Z,71.32
2023-03-26T10:13:05.042Z,72.43
2023-03-26T10:13:59.075Z,73.44
2023-03-26T10:14:57.007Z,65.66
2023-03-26T10:15:57.113Z,73.40
2023-03-26T10:16:57.119Z,74.47
2023-03-26T10:17:57.018Z,72.31
2023-03-26T10:18:57.052Z,67.58
2023-03-26T10:19:56.990Z,74.00
2023-03-26T10:20:57.082Z,68.21
2023-03-26T10:21:56.965Z,70.22
2023-03-26T10:22:57.041Z,73.52
2023-03-26T10:23:56.993Z,74.26
2023-03-26T10:24:56.975Z,77.71
2023-03-26T10:25:56.919Z,75.79
2023-03-26T10:27:09.861Z,71.65
2023-03-26T10:27:57.918Z,76.88
2023-03-26T10:28:56.924Z,73.63
2023-03-26T10:29:57.098Z,74.00
2023-03-26T10:30:57.278Z,75.25
2023-03-26T10:31:57.000Z,72.62
2023-03-26T10:32:57.098Z,72.40
2023-03-26T10:33:56.876Z,72.70
2023-03-26T10:34:56.884Z,75.95
2023-03-26T10:35:57.807Z,73.79
2023-03-26T10:36:56.859Z,73.90
2023-03-26T10:37:56.894Z,75.95
2023-03-26T10:38:56.831Z,70.07
2023-03-26T10:39:56.895Z,72.82
2023-03-26T10:40:56.973Z,70.32
2023-03-26T10:41:56.826Z,71.48
2023-03-26T10:42:56.892Z,77.60
2023-03-26T10:44:07.379Z,76.30
2023-03-26T10:44:58.802Z,68.79
2023-03-26T10:45:56.836Z,74.10
2023-03-26T10:46:56.794Z,73.58
2023-03-26T10:47:56.815Z,70.75
2023-03-26T10:48:56.768Z,72.86
2023-03-26T10:49:56.877Z,75.59
2023-03-26T10:50:56.945Z,63.96
2023-03-26T10:51:56.764Z,68.08
2023-03-26T10:52:56.764Z,74.14
2023-03-26T10:53:56.760Z,73.59
2023-03-26T10:54:56.752Z,73.27
2023-03-26T10:55:56.730Z,74.48
2023-03-26T10:56:56.792Z,77.03
2023-03-26T10:57:56.804Z,76.29
2023-03-26T10:58:56.698Z,71.79
2023-03-26T10:59:56.773Z,73.02
2023-03-26T11:00:56.876Z,75.79
2023-03-26T11:01:56.722Z,74.05
2023-03-26T11:02:56.706Z,75.96
2023-03-26T11:03:56.693Z,74.41
2023-03-26T11:04:56.721Z,76.46
2023-03-26T11:05:56.732Z,73.02
2023-03-26T11:06:56.636Z,69.14
2023-03-26T11:07:56.774Z,73.42
2023-03-26T11:08:56.691Z,75.87
2023-03-26T11:09:56.769Z,76.82
2023-03-26T11:10:56.817Z,72.10
2023-03-26T11:11:56.633Z,74.67
2023-03-26T11:12:56.679Z,76.63
2023-03-26T11:13:56.844Z,74.56
2023-03-26T11:14:56.712Z,74.23
2023-03-26T11:15:56.593Z,72.66
2023-03-26T11:16:56.568Z,72.92
2023-03-26T11:17:56.623Z,76.29
2023-03-26T11:18:56.570Z,74.12
2023-03-26T11:19:56.570Z,75.04
2023-03-26T11:20:56.785Z,76.10
2023-03-26T11:21:57.569Z,76.55
2023-03-26T11:22:56.547Z,72.92
2023-03-26T11:24:05.394Z,72.78
2023-03-26T11:24:57.543Z,73.85
2023-03-26T11:25:56.571Z,73.80
2023-03-26T11:26:56.503Z,74.37
2023-03-26T11:27:56.487Z,74.29
2023-03-26T11:29:04.127Z,74.84
2023-03-26T11:29:58.432Z,74.83
2023-03-26T11:30:56.714Z,73.20
2023-03-26T11:31:56.557Z,72.24
2023-03-26T11:32:57.512Z,77.30
2023-03-26T11:33:56.584Z,77.35
2023-03-26T11:34:56.464Z,75.90
2023-03-26T11:35:56.461Z,75.71
2023-03-26T11:36:56.469Z,77.73
2023-03-26T11:37:56.433Z,74.85
2023-03-26T11:38:56.435Z,73.88
2023-03-26T11:39:56.807Z,76.66
2023-03-26T11:40:58.043Z,76.98
2023-03-26T11:41:56.750Z,73.80
2023-03-26T11:42:56.472Z,75.77
2023-03-26T11:43:56.456Z,76.73
2023-03-26T11:44:56.500Z,73.87
2023-03-26T11:45:56.528Z,69.25
2023-03-26T11:46:56.517Z,72.95
2023-03-26T11:47:56.432Z,75.75
2023-03-26T11:48:56.361Z,78.46
2023-03-26T11:49:56.407Z,75.66
2023-03-26T11:50:56.607Z,73.46
2023-03-26T11:51:56.359Z,76.55
2023-03-26T11:52:56.349Z,76.21
2023-03-26T11:53:56.341Z,76.81
2023-03-26T11:54:56.324Z,75.22
2023-03-26T11:55:56.295Z,74.44
2023-03-26T11:57:05.018Z,76.25
2023-03-26T11:57:57.395Z,77.43
2023-03-26T11:58:56.280Z,76.56
2023-03-26T11:59:57.870Z,74.04
2023-03-26T12:00:57.496Z,76.44
2023-03-26T12:01:56.755Z,75.94
2023-03-26T12:02:56.290Z,74.51
2023-03-26T12:03:57.263Z,75.81
2023-03-26T12:04:56.285Z,77.32
2023-03-26T12:05:56.269Z,73.70
2023-03-26T12:06:56.267Z,74.77
2023-03-26T12:07:56.297Z,76.04
2023-03-26T12:08:56.285Z,73.41
2023-03-26T12:09:56.281Z,74.51
2023-03-26T12:10:56.367Z,70.07
2023-03-26T12:11:56.218Z,77.62
2023-03-26T12:12:56.227Z,76.10
2023-03-26T12:13:56.348Z,75.54
2023-03-26T12:14:56.283Z,77.97
2023-03-26T12:15:56.188Z,77.95
2023-03-26T12:16:57.187Z,78.18
2023-03-26T12:17:57.271Z,77.20
2023-03-26T12:18:56.190Z,72.86
2023-03-26T12:19:56.168Z,74.09
2023-03-26T12:20:56.234Z,73.42
2023-03-26T12:21:56.154Z,77.88
2023-03-26T12:22:56.128Z,72.06
2023-03-26T12:23:56.304Z,74.10
2023-03-26T12:24:56.142Z,78.73
2023-03-26T12:25:56.093Z,76.58
2023-03-26T12:26:56.104Z,77.62
2023-03-26T12:27:56.091Z,77.34
2023-03-26T12:28:56.145Z,68.26
2023-03-26T12:29:56.112Z,76.33
2023-03-26T12:30:56.198Z,76.30
2023-03-26T12:31:56.182Z,73.17
2023-03-26T12:32:56.080Z,77.64
2023-03-26T12:33:58.084Z,76.86
2023-03-26T12:34:56.075Z,69.33
2023-03-26T12:35:56.116Z,77.28
2023-03-26T12:36:56.033Z,74.13
2023-03-26T12:37:56.101Z,73.04
2023-03-26T12:40:06.970Z,77.17
2023-03-26T12:40:09.298Z,74.94
2023-03-26T12:40:57.044Z,77.00
2023-03-26T12:44:43.806Z,75.45
2023-03-26T12:44:47.905Z,76.60
2023-03-26T12:44:55.848Z,78.28
2023-03-26T12:44:59.148Z,69.94
2023-03-26T12:46:03.751Z,76.24
2023-03-26T12:47:58.312Z,73.58
2023-03-26T12:48:03.772Z,75.20
2023-03-26T12:48:58.108Z,76.85
2023-03-26T12:49:55.957Z,75.32
2023-03-26T12:50:56.204Z,70.25
2023-03-26T12:51:55.980Z,68.62